createdAt,value
2023-01-22T00:01:09.420Z,29.80
2023-01-22T00:03:37.358Z,29.07
2023-01-22T00:06:05.853Z,28.90
2023-01-22T00:08:33.714Z,27.83
2023-01-22T00:11:01.142Z,29.25
2023-01-22T00:13:28.684Z,27.85
2023-01-22T00:15:59.714Z,27.33
2023-01-22T00:18:27.147Z,27.00
2023-01-22T00:20:55.627Z,26.88
2023-01-22T00:23:25.566Z,27.35
2023-01-22T00:26:03.772Z,29.90
2023-01-22T00:28:31.472Z,27.90
2023-01-22T00:31:03.008Z,27.17
2023-01-22T00:33:30.853Z,27.05
2023-01-22T00:36:04.579Z,28.80
2023-01-22T00:38:31.782Z,27.40
2023-01-22T00:41:08.008Z,28.70
2023-01-22T00:43:38.591Z,28.42
2023-01-22T00:46:07.338Z,28.60
2023-01-22T00:48:35.318Z,28.87
2023-01-22T00:51:02.598Z,27.88
2023-01-22T00:53:29.978Z,28.35
2023-01-22T00:55:59.655Z,27.00
2023-01-22T00:58:28.884Z,26.55
2023-01-22T01:00:56.303Z,27.02
2023-01-22T01:03:32.657Z,27.25
2023-01-22T01:06:13.366Z,26.65
2023-01-22T01:08:43.152Z,27.08
2023-01-22T01:11:23.503Z,29.27
2023-01-22T01:13:52.041Z,28.50
2023-01-22T01:16:23.508Z,29.10
2023-01-22T01:18:51.081Z,30.40
2023-01-22T01:21:19.198Z,28.30
2023-01-22T01:23:46.937Z,26.42
2023-01-22T01:26:16.111Z,26.60
2023-01-22T01:28:45.284Z,25.95
2023-01-22T01:31:15.392Z,25.90
2023-01-22T01:33:43.339Z,27.27
2023-01-22T01:36:16.278Z,27.40
2023-01-22T01:38:44.438Z,28.98
2023-01-22T01:41:15.193Z,26.00
2023-01-22T01:43:42.803Z,27.05
2023-01-22T01:46:23.007Z,28.27
2023-01-22T01:48:55.656Z,26.45
2023-01-22T01:51:29.846Z,27.85
2023-01-22T01:53:59.624Z,27.95
2023-01-22T01:56:31.042Z,27.45
2023-01-22T01:59:03.018Z,29.27
2023-01-22T02:01:32.227Z,32.05
2023-01-22T02:04:00.741Z,32.27
2023-01-22T02:06:28.407Z,31.95
2023-01-22T02:08:57.701Z,32.88
2023-01-22T02:11:25.301Z,32.45
2023-01-22T02:14:02.335Z,32.80
2023-01-22T02:16:29.563Z,32.80
2023-01-22T02:18:56.806Z,30.63
2023-01-22T02:21:31.116Z,33.47
2023-01-22T02:23:59.949Z,31.10
2023-01-22T02:26:28.993Z,29.53
2023-01-22T02:28:56.520Z,28.57
2023-01-22T02:31:27.096Z,26.70
2023-01-22T02:33:54.547Z,29.75
2023-01-22T02:36:22.946Z,28.77
2023-01-22T02:38:50.966Z,30.73
2023-01-22T02:41:18.223Z,28.83
2023-01-22T02:43:45.699Z,29.52
2023-01-22T02:46:13.046Z,28.95
2023-01-22T02:48:40.262Z,30.05
2023-01-22T02:51:07.527Z,27.13
2023-01-22T02:53:35.727Z,26.60
2023-01-22T02:56:10.193Z,27.52
2023-01-22T02:58:41.190Z,26.98
2023-01-22T03:01:21.013Z,25.37
2023-01-22T03:03:56.748Z,24.55
2023-01-22T03:06:26.010Z,24.60
2023-01-22T03:08:56.035Z,24.08
2023-01-22T03:11:24.491Z,24.42
2023-01-22T03:14:11.621Z,26.92
2023-01-22T03:16:57.955Z,26.35
2023-01-22T03:19:43.708Z,25.35
2023-01-22T03:22:17.793Z,25.87
2023-01-22T03:24:51.146Z,24.58
2023-01-22T03:27:21.668Z,27.00
2023-01-22T03:29:49.048Z,24.20
2023-01-22T03:32:18.414Z,25.27
2023-01-22T03:34:45.793Z,24.23
2023-01-22T03:37:13.738Z,24.23
2023-01-22T03:39:43.394Z,25.50
2023-01-22T03:42:15.455Z,25.92
2023-01-22T03:44:42.681Z,27.60
2023-01-22T03:47:10.036Z,26.33
2023-01-22T03:49:37.255Z,25.80
2023-01-22T03:52:05.977Z,26.48
2023-01-22T03:54:33.137Z,25.00
2023-01-22T03:57:03.494Z,26.13
2023-01-22T03:59:33.895Z,26.43
2023-01-22T04:02:01.094Z,25.85
2023-01-22T04:04:29.754Z,26.53
2023-01-22T04:06:56.941Z,25.92
2023-01-22T04:09:24.158Z,27.40
2023-01-22T04:11:51.297Z,28.48
2023-01-22T04:14:19.222Z,28.93
2023-01-22T04:16:58.471Z,30.80
2023-01-22T04:19:49.565Z,29.52
2023-01-22T04:22:35.468Z,30.17
2023-01-22T04:25:03.492Z,30.40
2023-01-22T04:27:31.675Z,30.70
2023-01-22T04:29:58.964Z,29.43
2023-01-22T04:32:26.185Z,30.13
2023-01-22T04:35:16.353Z,30.50
2023-01-22T04:37:49.258Z,30.60
2023-01-22T04:40:17.098Z,30.83
2023-01-22T04:42:46.782Z,30.50
2023-01-22T04:45:15.508Z,30.38
2023-01-22T04:47:44.880Z,29.92
2023-01-22T04:50:22.054Z,30.42
2023-01-22T04:52:53.976Z,30.60
2023-01-22T04:55:22.413Z,30.53
2023-01-22T04:58:02.264Z,31.90
2023-01-22T05:00:31.087Z,31.50
2023-01-22T05:03:02.415Z,30.60
2023-01-22T05:05:31.225Z,30.23
2023-01-22T05:07:59.548Z,27.13
2023-01-22T05:10:27.115Z,26.50
2023-01-22T05:12:54.465Z,27.48
2023-01-22T05:15:25.006Z,27.70
2023-01-22T05:17:55.874Z,25.97
2023-01-22T05:20:23.122Z,25.13
2023-01-22T05:22:50.378Z,24.80
2023-01-22T05:25:21.616Z,24.33
2023-01-22T05:27:48.905Z,24.00
2023-01-22T05:30:27.221Z,24.90
2023-01-22T05:33:11.558Z,22.98
2023-01-22T05:35:39.961Z,24.42
2023-01-22T05:38:07.309Z,24.15
2023-01-22T05:40:34.465Z,23.30
2023-01-22T05:43:04.754Z,24.33
2023-01-22T05:45:31.999Z,24.33
2023-01-22T05:48:18.203Z,24.98
2023-01-22T05:51:11.674Z,23.70
2023-01-22T05:53:39.233Z,23.27
2023-01-22T05:56:06.721Z,23.25
2023-01-22T05:58:37.813Z,24.48
2023-01-22T06:01:05.548Z,22.75
2023-01-22T06:03:39.967Z,23.02
2023-01-22T06:06:10.988Z,23.60
2023-01-22T06:08:39.240Z,24.00
2023-01-22T06:11:19.938Z,24.00
2023-01-22T06:13:47.317Z,25.65
2023-01-22T06:16:17.896Z,23.83
2023-01-22T06:19:03.806Z,24.33
2023-01-22T06:21:38.155Z,25.17
2023-01-22T06:24:05.796Z,23.58
2023-01-22T06:26:33.250Z,25.08
2023-01-22T06:29:01.615Z,23.83
2023-01-22T06:31:29.672Z,24.73
2023-01-22T06:33:57.531Z,23.20
2023-01-22T06:36:24.769Z,25.42
2023-01-22T06:38:52.437Z,24.77
2023-01-22T06:41:32.666Z,24.50
2023-01-22T06:44:02.262Z,24.65
2023-01-22T06:46:29.485Z,23.95
2023-01-22T06:49:03.347Z,24.55
2023-01-22T06:51:30.640Z,25.38
2023-01-22T06:53:58.839Z,26.55
2023-01-22T06:56:28.077Z,25.45
2023-01-22T06:58:56.896Z,26.15
2023-01-22T07:01:25.874Z,25.50
2023-01-22T07:03:53.265Z,25.60
2023-01-22T07:06:20.459Z,26.80
2023-01-22T07:08:47.892Z,26.70
2023-01-22T07:11:15.359Z,25.50
2023-01-22T07:13:42.975Z,26.55
2023-01-22T07:16:10.316Z,24.50
2023-01-22T07:18:37.533Z,26.27
2023-01-22T07:21:05.718Z,25.75
2023-01-22T07:23:33.037Z,26.52
2023-01-22T07:26:00.213Z,26.25
2023-01-22T07:28:27.628Z,26.60
2023-01-22T07:30:56.409Z,27.03
2023-01-22T07:33:23.675Z,24.58
2023-01-22T07:35:55.861Z,26.38
2023-01-22T07:38:24.176Z,26.73
2023-01-22T07:40:51.551Z,26.67
2023-01-22T07:43:18.870Z,27.03
2023-01-22T07:45:46.057Z,27.73
2023-01-22T07:48:13.335Z,26.38
2023-01-22T07:50:40.631Z,26.75
2023-01-22T07:53:08.683Z,25.83
2023-01-22T07:55:35.815Z,27.15
2023-01-22T07:58:06.490Z,27.03
2023-01-22T08:00:35.271Z,27.65
2023-01-22T08:03:04.830Z,26.30
2023-01-22T08:05:32.420Z,27.33
2023-01-22T08:07:59.655Z,26.85
2023-01-22T08:10:27.016Z,28.07
2023-01-22T08:12:54.246Z,26.23
2023-01-22T08:15:21.751Z,25.90
2023-01-22T08:17:50.973Z,27.63
2023-01-22T08:20:18.884Z,27.05
2023-01-22T08:22:46.378Z,27.65
2023-01-22T08:25:13.771Z,26.90
2023-01-22T08:27:41.092Z,26.40
2023-01-22T08:30:11.111Z,25.92
2023-01-22T08:32:41.170Z,26.17
2023-01-22T08:35:09.254Z,26.63
2023-01-22T08:37:37.088Z,25.95
2023-01-22T08:40:09.980Z,26.70
2023-01-22T08:42:37.374Z,27.13
2023-01-22T08:45:05.137Z,27.90
2023-01-22T08:47:32.350Z,27.40
2023-01-22T08:50:01.923Z,27.63
2023-01-22T08:52:29.218Z,26.45
2023-01-22T08:54:56.406Z,27.40
2023-01-22T08:57:23.601Z,26.30
2023-01-22T09:00:00.760Z,27.45
2023-01-22T09:02:28.557Z,27.35
2023-01-22T09:04:55.698Z,26.52
2023-01-22T09:07:22.946Z,27.02
2023-01-22T09:09:50.322Z,26.88
2023-01-22T09:12:17.540Z,26.40
2023-01-22T09:14:44.678Z,28.35
2023-01-22T09:17:11.897Z,26.77
2023-01-22T09:19:39.066Z,27.02
2023-01-22T09:22:07.480Z,26.52
2023-01-22T09:24:34.616Z,27.58
2023-01-22T09:27:01.864Z,26.70
2023-01-22T09:29:29.070Z,26.55
2023-01-22T09:31:56.738Z,27.38
2023-01-22T09:34:23.900Z,25.75
2023-01-22T09:36:51.068Z,26.38
2023-01-22T09:39:18.395Z,26.38
2023-01-22T09:41:54.419Z,26.50
2023-01-22T09:44:33.538Z,26.70
2023-01-22T09:47:11.408Z,25.45
2023-01-22T09:49:50.382Z,27.05
2023-01-22T09:52:17.712Z,26.00
2023-01-22T09:54:44.907Z,26.83
2023-01-22T09:57:29.937Z,25.33
2023-01-22T09:59:58.385Z,26.45
2023-01-22T10:02:36.863Z,25.92
2023-01-22T10:05:23.621Z,26.27
2023-01-22T10:07:57.519Z,27.08
2023-01-22T10:10:27.247Z,25.92
2023-01-22T10:13:10.971Z,25.95
2023-01-22T10:15:38.284Z,26.20
2023-01-22T10:18:22.248Z,26.55
2023-01-22T10:20:50.295Z,26.65
2023-01-22T10:23:20.711Z,25.20
2023-01-22T10:25:48.373Z,26.30
2023-01-22T10:28:22.624Z,24.40
2023-01-22T10:30:51.479Z,25.67
2023-01-22T10:33:22.856Z,26.40
2023-01-22T10:35:52.656Z,26.48
2023-01-22T10:38:28.446Z,26.60
2023-01-22T10:41:01.566Z,26.10
2023-01-22T10:43:36.732Z,24.47
2023-01-22T10:46:23.860Z,25.52
2023-01-22T10:49:01.789Z,24.88
2023-01-22T10:51:37.262Z,25.83
2023-01-22T10:54:18.299Z,24.67
2023-01-22T10:56:45.817Z,25.58
2023-01-22T10:59:28.497Z,23.05
2023-01-22T11:02:01.793Z,25.40
2023-01-22T11:04:34.271Z,24.70
2023-01-22T11:07:12.410Z,25.17
2023-01-22T11:09:51.181Z,24.60
2023-01-22T11:12:27.155Z,24.25
2023-01-22T11:15:27.143Z,24.25
2023-01-22T11:17:57.996Z,25.67
2023-01-22T11:20:41.872Z,25.07
2023-01-22T11:23:11.801Z,25.02
2023-01-22T11:25:45.957Z,25.10
2023-01-22T11:28:33.602Z,25.27
2023-01-22T11:31:16.217Z,25.95
2023-01-22T11:34:26.887Z,23.25
2023-01-22T11:36:57.800Z,23.48
2023-01-22T11:39:55.999Z,24.90
2023-01-22T11:43:08.821Z,23.35
2023-01-22T11:45:55.018Z,23.60
2023-01-22T11:48:49.239Z,24.90
2023-01-22T11:51:37.210Z,24.20
2023-01-22T11:54:24.617Z,24.92
2023-01-22T11:57:20.382Z,23.70
2023-01-22T12:00:10.175Z,24.40
2023-01-22T12:02:46.231Z,22.20
2023-01-22T12:05:32.033Z,20.67
2023-01-22T12:08:14.992Z,15.10
2023-01-22T12:11:04.393Z,10.70
2023-01-22T12:13:49.414Z,12.02
2023-01-22T12:16:36.598Z,15.00
2023-01-22T12:19:22.322Z,20.20
2023-01-22T12:22:22.798Z,22.02
2023-01-22T12:24:51.659Z,21.48
2023-01-22T12:27:26.908Z,22.45
2023-01-22T12:30:04.733Z,22.90
2023-01-22T12:32:35.774Z,24.10
2023-01-22T12:35:21.146Z,22.95
2023-01-22T12:37:58.674Z,22.17
2023-01-22T12:40:56.489Z,24.95
2023-01-22T12:43:37.730Z,24.85
2023-01-22T12:46:29.990Z,23.58
2023-01-22T12:49:01.814Z,24.67
2023-01-22T12:51:42.307Z,23.70
2023-01-22T12:54:10.373Z,23.27
2023-01-22T12:56:37.892Z,24.63
2023-01-22T12:59:05.095Z,23.98
2023-01-22T13:01:35.641Z,24.45
2023-01-22T13:04:07.714Z,26.33
2023-01-22T13:06:41.006Z,25.40
2023-01-22T13:09:25.138Z,24.95
2023-01-22T13:11:52.340Z,24.80
2023-01-22T13:14:22.211Z,25.58
2023-01-22T13:16:54.403Z,25.73
2023-01-22T13:19:45.609Z,26.23
2023-01-22T13:22:19.974Z,25.38
2023-01-22T13:24:58.077Z,25.95
2023-01-22T13:27:29.599Z,26.87
2023-01-22T13:30:09.389Z,27.67
2023-01-22T13:32:36.579Z,26.23
2023-01-22T13:35:05.841Z,27.20
2023-01-22T13:37:36.532Z,27.52
2023-01-22T13:40:23.355Z,27.52
2023-01-22T13:42:51.331Z,27.52
2023-01-22T13:45:31.364Z,28.27
2023-01-22T13:48:04.171Z,28.90
2023-01-22T13:50:32.255Z,28.08
2023-01-22T13:53:03.434Z,29.20
2023-01-22T13:55:30.992Z,26.65
2023-01-22T13:58:01.551Z,26.70
2023-01-22T14:00:35.271Z,28.15
2023-01-22T14:03:03.696Z,27.38
2023-01-22T14:05:34.467Z,29.05
2023-01-22T14:08:12.401Z,29.23
2023-01-22T14:10:43.488Z,28.48
2023-01-22T14:13:13.516Z,29.77
2023-01-22T14:15:41.669Z,28.90
2023-01-22T14:18:16.170Z,28.70
2023-01-22T14:20:46.012Z,27.52
2023-01-22T14:23:14.034Z,28.85
2023-01-22T14:25:44.731Z,28.60
2023-01-22T14:28:12.357Z,27.55
2023-01-22T14:30:39.618Z,26.73
2023-01-22T14:33:07.295Z,26.98
2023-01-22T14:35:34.475Z,26.83
2023-01-22T14:38:01.714Z,28.40
2023-01-22T14:40:30.292Z,28.55
2023-01-22T14:43:00.873Z,27.50
2023-01-22T14:45:28.533Z,27.85
2023-01-22T14:47:55.872Z,28.15
2023-01-22T14:50:23.645Z,27.90
2023-01-22T14:52:51.468Z,27.58
2023-01-22T14:55:19.771Z,27.70
2023-01-22T14:57:46.963Z,27.65
2023-01-22T15:00:17.837Z,29.10
2023-01-22T15:02:45.191Z,28.30
2023-01-22T15:05:12.399Z,29.45
2023-01-22T15:07:39.610Z,28.17
2023-01-22T15:10:08.268Z,27.95
2023-01-22T15:12:35.516Z,30.08
2023-01-22T15:15:02.835Z,29.70
2023-01-22T15:17:30.054Z,30.20
2023-01-22T15:19:57.198Z,29.47
2023-01-22T15:22:24.400Z,29.48
2023-01-22T15:24:51.602Z,29.75
2023-01-22T15:27:19.011Z,28.83
2023-01-22T15:29:46.572Z,26.85
2023-01-22T15:32:14.297Z,27.77
2023-01-22T15:34:41.752Z,28.87
2023-01-22T15:37:09.862Z,29.48
2023-01-22T15:39:36.990Z,29.75
2023-01-22T15:42:04.434Z,30.45
2023-01-22T15:44:31.604Z,29.25
2023-01-22T15:47:00.976Z,30.27
2023-01-22T15:49:28.411Z,29.05
2023-01-22T15:51:55.754Z,30.23
2023-01-22T15:54:25.561Z,29.52
2023-01-22T15:56:53.302Z,29.40
2023-01-22T15:59:20.598Z,30.60
2023-01-22T16:01:47.870Z,29.80
2023-01-22T16:04:15.166Z,29.30
2023-01-22T16:06:42.431Z,30.57
2023-01-22T16:09:09.581Z,29.93
2023-01-22T16:11:37.122Z,30.77
2023-01-22T16:14:04.308Z,30.27
2023-01-22T16:16:33.920Z,30.35
2023-01-22T16:19:03.357Z,31.60
2023-01-22T16:21:30.838Z,30.27
2023-01-22T16:24:00.112Z,30.77
2023-01-22T16:26:32.488Z,30.40
2023-01-22T16:29:03.104Z,29.97
2023-01-22T16:31:32.803Z,31.30
2023-01-22T16:34:09.404Z,31.67
2023-01-22T16:36:37.177Z,31.65
2023-01-22T16:39:05.071Z,31.87
2023-01-22T16:41:36.902Z,32.22
2023-01-22T16:44:13.033Z,31.67
2023-01-22T16:46:42.405Z,31.90
2023-01-22T16:49:24.547Z,32.08
2023-01-22T16:51:54.691Z,31.60
2023-01-22T16:54:27.956Z,31.27
2023-01-22T16:56:56.470Z,30.60
2023-01-22T16:59:27.592Z,30.33
2023-01-22T17:01:56.347Z,29.33
2023-01-22T17:04:23.624Z,30.00
2023-01-22T17:06:53.425Z,28.80
2023-01-22T17:09:23.596Z,29.30
2023-01-22T17:11:55.724Z,30.57
2023-01-22T17:14:26.346Z,30.60
2023-01-22T17:16:53.548Z,30.27
2023-01-22T17:19:20.823Z,31.23
2023-01-22T17:21:51.732Z,30.02
2023-01-22T17:24:19.207Z,30.57
2023-01-22T17:26:48.071Z,29.60
2023-01-22T17:29:15.375Z,31.95
2023-01-22T17:31:42.708Z,32.15
2023-01-22T17:34:11.002Z,31.65
2023-01-22T17:36:39.790Z,30.52
2023-01-22T17:39:13.042Z,31.40
2023-01-22T17:41:40.207Z,32.58
2023-01-22T17:44:08.452Z,32.83
2023-01-22T17:46:36.339Z,31.75
2023-01-22T17:49:04.600Z,30.35
2023-01-22T17:51:33.707Z,31.65
2023-01-22T17:54:03.127Z,30.98
2023-01-22T17:56:36.532Z,30.58
2023-01-22T17:59:06.940Z,30.15
2023-01-22T18:01:35.878Z,31.80
2023-01-22T18:04:06.219Z,30.13
2023-01-22T18:06:34.169Z,29.70
2023-01-22T18:09:01.702Z,30.95
2023-01-22T18:11:30.039Z,30.23
2023-01-22T18:13:58.760Z,30.55
2023-01-22T18:16:28.194Z,30.75
2023-01-22T18:18:56.872Z,29.02
2023-01-22T18:21:24.775Z,30.33
2023-01-22T18:23:52.278Z,29.42
2023-01-22T18:26:22.687Z,30.73
2023-01-22T18:28:50.904Z,31.00
2023-01-22T18:31:21.362Z,29.65
2023-01-22T18:33:48.693Z,30.50
2023-01-22T18:36:19.006Z,31.80
2023-01-22T18:38:46.872Z,30.77
2023-01-22T18:41:19.678Z,29.80
2023-01-22T18:43:48.480Z,30.77
2023-01-22T18:46:16.673Z,30.25
2023-01-22T18:48:44.123Z,30.40
2023-01-22T18:51:15.932Z,30.75
2023-01-22T18:53:43.140Z,30.50
2023-01-22T18:56:11.782Z,28.83
2023-01-22T18:58:42.205Z,31.15
2023-01-22T19:01:19.933Z,32.60
2023-01-22T19:03:52.535Z,32.60
2023-01-22T19:06:22.711Z,32.03
2023-01-22T19:09:04.274Z,31.60
2023-01-22T19:11:34.748Z,30.77
2023-01-22T19:14:03.277Z,30.23
2023-01-22T19:16:31.692Z,30.10
2023-01-22T19:19:00.788Z,30.27
2023-01-22T19:21:28.195Z,30.55
2023-01-22T19:23:58.677Z,31.65
2023-01-22T19:26:27.042Z,30.58
2023-01-22T19:29:00.629Z,30.45
2023-01-22T19:31:36.558Z,30.25
2023-01-22T19:34:04.915Z,29.98
2023-01-22T19:36:34.079Z,31.13
2023-01-22T19:39:04.205Z,32.80
2023-01-22T19:41:31.704Z,32.65
2023-01-22T19:44:01.123Z,31.63
2023-01-22T19:46:29.283Z,32.20
2023-01-22T19:48:57.153Z,30.80
2023-01-22T19:51:27.386Z,31.67
2023-01-22T19:53:54.813Z,32.22
2023-01-22T19:56:28.066Z,30.17
2023-01-22T19:58:59.958Z,31.67
2023-01-22T20:01:27.391Z,32.53
2023-01-22T20:03:56.386Z,32.50
2023-01-22T20:06:24.086Z,31.27
2023-01-22T20:08:52.615Z,31.20
2023-01-22T20:11:19.830Z,31.17
2023-01-22T20:13:48.672Z,31.73
2023-01-22T20:16:20.929Z,31.07
2023-01-22T20:18:48.966Z,30.73
2023-01-22T20:21:17.379Z,30.23
2023-01-22T20:23:46.138Z,31.38
2023-01-22T20:26:14.489Z,31.27
2023-01-22T20:28:42.086Z,31.60
2023-01-22T20:31:13.247Z,31.27
2023-01-22T20:33:40.807Z,30.27
2023-01-22T20:36:10.354Z,30.93
2023-01-22T20:38:37.754Z,32.55
2023-01-22T20:41:10.078Z,29.58
2023-01-22T20:43:39.320Z,30.10
2023-01-22T20:46:16.158Z,30.30
2023-01-22T20:48:43.994Z,31.40
2023-01-22T20:51:17.274Z,31.17
2023-01-22T20:53:46.590Z,32.20
2023-01-22T20:56:16.336Z,30.88
2023-01-22T20:58:43.823Z,31.43
2023-01-22T21:01:18.940Z,30.75
2023-01-22T21:03:47.958Z,32.55
2023-01-22T21:06:18.734Z,32.35
2023-01-22T21:08:50.049Z,30.75
2023-01-22T21:11:19.736Z,29.85
2023-01-22T21:13:48.595Z,31.60
2023-01-22T21:16:23.186Z,32.20
2023-01-22T21:18:52.661Z,31.83
2023-01-22T21:21:20.836Z,31.63
2023-01-22T21:23:52.411Z,32.58
2023-01-22T21:26:25.250Z,31.75
2023-01-22T21:29:01.897Z,32.33
2023-01-22T21:31:30.037Z,32.13
2023-01-22T21:34:05.214Z,31.35
2023-01-22T21:36:39.158Z,33.50
2023-01-22T21:39:09.041Z,33.15
2023-01-22T21:41:37.449Z,33.25
2023-01-22T21:44:23.956Z,31.83
2023-01-22T21:46:51.691Z,33.60
2023-01-22T21:49:23.274Z,32.07
2023-01-22T21:51:57.044Z,31.77
2023-01-22T21:54:30.037Z,30.88
2023-01-22T21:56:57.229Z,31.58
2023-01-22T21:59:25.401Z,31.17
2023-01-22T22:01:55.845Z,30.92
2023-01-22T22:04:25.247Z,32.03
2023-01-22T22:06:53.591Z,30.55
2023-01-22T22:09:23.992Z,30.80
2023-01-22T22:11:54.587Z,31.02
2023-01-22T22:14:21.860Z,29.50
2023-01-22T22:16:49.626Z,31.63
2023-01-22T22:19:18.286Z,31.40
2023-01-22T22:21:45.987Z,30.02
2023-01-22T22:24:13.886Z,32.13
2023-01-22T22:26:41.259Z,32.45
2023-01-22T22:29:09.651Z,30.52
2023-01-22T22:31:37.975Z,30.38
2023-01-22T22:34:05.412Z,31.73
2023-01-22T22:36:33.219Z,30.92
2023-01-22T22:39:02.075Z,30.13
2023-01-22T22:41:33.087Z,31.05
2023-01-22T22:44:00.375Z,30.70
2023-01-22T22:46:30.351Z,31.30
2023-01-22T22:49:00.109Z,31.33
2023-01-22T22:51:29.422Z,31.63
2023-01-22T22:54:02.863Z,31.83
2023-01-22T22:56:30.601Z,30.90
2023-01-22T22:58:59.321Z,31.20
2023-01-22T23:01:27.631Z,31.17
2023-01-22T23:03:55.060Z,29.98
2023-01-22T23:06:26.164Z,31.52
2023-01-22T23:09:10.557Z,32.33
2023-01-22T23:11:38.621Z,31.85
2023-01-22T23:14:06.736Z,29.60
2023-01-22T23:16:36.759Z,29.88
2023-01-22T23:19:07.428Z,31.00
2023-01-22T23:21:41.288Z,30.70
2023-01-22T23:24:14.017Z,31.17
2023-01-22T23:26:43.597Z,30.95
2023-01-22T23:29:14.161Z,31.40
2023-01-22T23:31:41.800Z,30.52
2023-01-22T23:34:13.233Z,31.90
2023-01-22T23:36:43.568Z,31.65
2023-01-22T23:39:16.354Z,30.70
2023-01-22T23:41:44.454Z,31.67
2023-01-22T23:44:11.856Z,31.70
2023-01-22T23:46:39.184Z,32.03
2023-01-22T23:49:09.738Z,32.10
2023-01-22T23:51:38.213Z,32.37
2023-01-22T23:54:05.427Z,32.27
2023-01-22T23:56:33.070Z,31.05
2023-01-22T23:59:00.301Z,32.03
